sensor_id;sensor_type;location;lat;lon;timestamp;pressure;altitude;pressure_sealevel;temperature;humidity
68376;BME280;55318;52.068;5.188;2022-09-29T00:01:27;100048.0;;;7.33;92.36
68376;BME280;55318;52.068;5.188;2022-09-29T00:03:04;100047.0;;;7.28;92.1
68376;BME280;55318;52.068;5.188;2022-09-29T00:06:17;100051.0;;;7.24;92.23
68376;BME280;55318;52.068;5.188;2022-09-29T00:07:53;100045.0;;;7.21;92.56
68376;BME280;55318;52.068;5.188;2022-09-29T00:09:30;100046.0;;;7.17;92.52
68376;BME280;55318;52.068;5.188;2022-09-29T00:12:44;100047.0;;;7.19;93.23
68376;BME280;55318;52.068;5.188;2022-09-29T00:14:20;100049.0;;;7.2;92.81
68376;BME280;55318;52.068;5.188;2022-09-29T00:15:59;100044.0;;;7.2;92.31
68376;BME280;55318;52.068;5.188;2022-09-29T00:17:36;100049.0;;;7.12;92.25
68376;BME280;55318;52.068;5.188;2022-09-29T00:20:55;100046.0;;;7.12;92.61
68376;BME280;55318;52.068;5.188;2022-09-29T00:22:32;100043.0;;;7.12;92.56
68376;BME280;55318;52.068;5.188;2022-09-29T00:24:08;100042.0;;;7.08;92.38
68376;BME280;55318;52.068;5.188;2022-09-29T00:27:20;100044.0;;;7.03;92.59
68376;BME280;55318;52.068;5.188;2022-09-29T00:28:59;100043.0;;;7.0;92.44
68376;BME280;55318;52.068;5.188;2022-09-29T00:30:35;100041.0;;;6.95;92.35
68376;BME280;55318;52.068;5.188;2022-09-29T00:32:11;100038.0;;;6.94;92.42
68376;BME280;55318;52.068;5.188;2022-09-29T00:35:26;100041.0;;;6.97;92.73
68376;BME280;55318;52.068;5.188;2022-09-29T00:37:02;100038.0;;;6.99;93.3
68376;BME280;55318;52.068;5.188;2022-09-29T00:38:40;100039.0;;;6.99;92.87
68376;BME280;55318;52.068;5.188;2022-09-29T00:41:56;100036.0;;;6.95;92.6
68376;BME280;55318;52.068;5.188;2022-09-29T00:43:52;100036.0;;;6.95;92.64
68376;BME280;55318;52.068;5.188;2022-09-29T00:45:30;100039.0;;;6.95;92.96
68376;BME280;55318;52.068;5.188;2022-09-29T00:47:12;100041.0;;;6.92;93.97
68376;BME280;55318;52.068;5.188;2022-09-29T00:48:52;100035.0;;;6.96;93.24
68376;BME280;55318;52.068;5.188;2022-09-29T00:52:19;100041.0;;;6.94;93.27
68376;BME280;55318;52.068;5.188;2022-09-29T00:53:58;100040.0;;;6.91;92.59
68376;BME280;55318;52.068;5.188;2022-09-29T00:55:37;100043.0;;;6.89;92.73
68376;BME280;55318;52.068;5.188;2022-09-29T00:57:20;100041.0;;;6.88;92.88
68376;BME280;55318;52.068;5.188;2022-09-29T01:00:43;100046.0;;;6.86;92.57
68376;BME280;55318;52.068;5.188;2022-09-29T01:02:20;100043.0;;;6.85;92.52
68376;BME280;55318;52.068;5.188;2022-09-29T01:04:00;100046.0;;;6.78;92.44
68376;BME280;55318;52.068;5.188;2022-09-29T01:05:46;100044.0;;;6.73;92.96
68376;BME280;55318;52.068;5.188;2022-09-29T01:09:04;100045.0;;;6.8;92.91
68376;BME280;55318;52.068;5.188;2022-09-29T01:10:42;100041.0;;;6.78;92.93
68376;BME280;55318;52.068;5.188;2022-09-29T01:12:20;100046.0;;;6.74;92.91
68376;BME280;55318;52.068;5.188;2022-09-29T01:14:02;100044.0;;;6.73;93.31
68376;BME280;55318;52.068;5.188;2022-09-29T01:17:19;100043.0;;;6.71;93.51
68376;BME280;55318;52.068;5.188;2022-09-29T01:18:56;100043.0;;;6.75;93.41
68376;BME280;55318;52.068;5.188;2022-09-29T01:20:36;100043.0;;;6.71;93.07
68376;BME280;55318;52.068;5.188;2022-09-29T01:25:40;100043.0;;;6.79;92.94
68376;BME280;55318;52.068;5.188;2022-09-29T01:28:38;100044.0;;;6.87;93.2
68376;BME280;55318;52.068;5.188;2022-09-29T01:31:11;100044.0;;;6.78;93.5
68376;BME280;55318;52.068;5.188;2022-09-29T01:33:06;100047.0;;;6.76;93.43
68376;BME280;55318;52.068;5.188;2022-09-29T01:35:16;100049.0;;;6.78;93.78
68376;BME280;55318;52.068;5.188;2022-09-29T01:38:54;100048.0;;;6.79;94.18
68376;BME280;55318;52.068;5.188;2022-09-29T01:40:44;100049.0;;;6.74;93.37
68376;BME280;55318;52.068;5.188;2022-09-29T01:42:31;100046.0;;;6.73;94.63
68376;BME280;55318;52.068;5.188;2022-09-29T01:44:19;100049.0;;;6.75;94.25
68376;BME280;55318;52.068;5.188;2022-09-29T01:46:01;100049.0;;;6.76;94.93
68376;BME280;55318;52.068;5.188;2022-09-29T01:47:41;100050.0;;;6.71;93.82
68376;BME280;55318;52.068;5.188;2022-09-29T01:51:06;100048.0;;;6.68;93.46
68376;BME280;55318;52.068;5.188;2022-09-29T01:52:48;100045.0;;;6.6;93.03
68376;BME280;55318;52.068;5.188;2022-09-29T01:54:31;100048.0;;;6.57;93.27
68376;BME280;55318;52.068;5.188;2022-09-29T01:56:20;100048.0;;;6.51;92.96
68376;BME280;55318;52.068;5.188;2022-09-29T01:58:04;100047.0;;;6.5;93.11
68376;BME280;55318;52.068;5.188;2022-09-29T02:01:28;100051.0;;;6.49;93.17
68376;BME280;55318;52.068;5.188;2022-09-29T02:03:10;100047.0;;;6.47;92.95
68376;BME280;55318;52.068;5.188;2022-09-29T02:04:53;100050.0;;;6.46;92.92
68376;BME280;55318;52.068;5.188;2022-09-29T02:06:38;100055.0;;;6.42;92.51
68376;BME280;55318;52.068;5.188;2022-09-29T02:08:24;100053.0;;;6.39;92.7
68376;BME280;55318;52.068;5.188;2022-09-29T02:11:50;100055.0;;;6.37;92.52
68376;BME280;55318;52.068;5.188;2022-09-29T02:13:30;100053.0;;;6.32;92.53
68376;BME280;55318;52.068;5.188;2022-09-29T02:15:13;100055.0;;;6.3;92.55
68376;BME280;55318;52.068;5.188;2022-09-29T02:16:53;100051.0;;;6.26;92.47
68376;BME280;55318;52.068;5.188;2022-09-29T02:20:23;100055.0;;;6.25;92.62
68376;BME280;55318;52.068;5.188;2022-09-29T02:21:59;100053.0;;;6.24;92.74
68376;BME280;55318;52.068;5.188;2022-09-29T02:23:36;100051.0;;;6.22;92.34
68376;BME280;55318;52.068;5.188;2022-09-29T02:25:15;100055.0;;;6.21;92.51
68376;BME280;55318;52.068;5.188;2022-09-29T02:28:29;100055.0;;;6.2;92.2
68376;BME280;55318;52.068;5.188;2022-09-29T02:30:06;100055.0;;;6.16;92.21
68376;BME280;55318;52.068;5.188;2022-09-29T02:31:44;100057.0;;;6.18;92.44
68376;BME280;55318;52.068;5.188;2022-09-29T02:35:02;100055.0;;;6.15;92.35
68376;BME280;55318;52.068;5.188;2022-09-29T02:36:47;100056.0;;;6.12;92.21
68376;BME280;55318;52.068;5.188;2022-09-29T02:38:38;100053.0;;;6.06;92.81
68376;BME280;55318;52.068;5.188;2022-09-29T02:40:28;100051.0;;;6.07;92.68
68376;BME280;55318;52.068;5.188;2022-09-29T02:42:23;100051.0;;;6.09;92.83
68376;BME280;55318;52.068;5.188;2022-09-29T02:44:16;100049.0;;;6.03;92.45
68376;BME280;55318;52.068;5.188;2022-09-29T02:46:35;100049.0;;;6.04;92.33
68376;BME280;55318;52.068;5.188;2022-09-29T02:48:28;100052.0;;;6.02;92.54
68376;BME280;55318;52.068;5.188;2022-09-29T02:50:27;100052.0;;;6.04;92.95
68376;BME280;55318;52.068;5.188;2022-09-29T02:54:13;100050.0;;;6.06;92.79
68376;BME280;55318;52.068;5.188;2022-09-29T02:56:00;100053.0;;;6.01;92.77
68376;BME280;55318;52.068;5.188;2022-09-29T02:57:47;100052.0;;;5.96;92.51
68376;BME280;55318;52.068;5.188;2022-09-29T02:59:29;100049.0;;;5.96;92.6
68376;BME280;55318;52.068;5.188;2022-09-29T03:01:13;100049.0;;;5.95;92.46
68376;BME280;55318;52.068;5.188;2022-09-29T03:02:49;100053.0;;;5.95;92.41
68376;BME280;55318;52.068;5.188;2022-09-29T03:06:03;100051.0;;;5.92;92.49
68376;BME280;55318;52.068;5.188;2022-09-29T03:07:39;100052.0;;;5.93;92.66
68376;BME280;55318;52.068;5.188;2022-09-29T03:09:17;100053.0;;;5.94;92.39
68376;BME280;55318;52.068;5.188;2022-09-29T03:12:30;100055.0;;;5.89;92.47
68376;BME280;55318;52.068;5.188;2022-09-29T03:14:06;100055.0;;;5.88;92.35
68376;BME280;55318;52.068;5.188;2022-09-29T03:15:42;100055.0;;;5.84;92.25
68376;BME280;55318;52.068;5.188;2022-09-29T03:18:57;100055.0;;;5.81;92.81
68376;BME280;55318;52.068;5.188;2022-09-29T03:20:33;100056.0;;;5.86;92.66
68376;BME280;55318;52.068;5.188;2022-09-29T03:22:09;100053.0;;;5.83;92.55
68376;BME280;55318;52.068;5.188;2022-09-29T03:23:45;100056.0;;;5.84;92.67
68376;BME280;55318;52.068;5.188;2022-09-29T03:27:00;100055.0;;;5.85;92.77
68376;BME280;55318;52.068;5.188;2022-09-29T03:28:36;100060.0;;;5.85;92.9
68376;BME280;55318;52.068;5.188;2022-09-29T03:30:13;100055.0;;;5.84;92.73
68376;BME280;55318;52.068;5.188;2022-09-29T03:33:26;100056.0;;;5.85;93.01
68376;BME280;55318;52.068;5.188;2022-09-29T03:35:04;100059.0;;;5.81;92.9
68376;BME280;55318;52.068;5.188;2022-09-29T03:36:41;100059.0;;;5.74;93.31
68376;BME280;55318;52.068;5.188;2022-09-29T03:39:53;100055.0;;;5.76;93.25
68376;BME280;55318;52.068;5.188;2022-09-29T03:41:29;100055.0;;;5.76;93.53
68376;BME280;55318;52.068;5.188;2022-09-29T03:43:05;100061.0;;;5.8;94.15
68376;BME280;55318;52.068;5.188;2022-09-29T03:44:41;100060.0;;;5.83;94.72
68376;BME280;55318;52.068;5.188;2022-09-29T03:47:54;100058.0;;;5.8;93.77
68376;BME280;55318;52.068;5.188;2022-09-29T03:49:30;100063.0;;;5.74;93.31
68376;BME280;55318;52.068;5.188;2022-09-29T03:51:06;100062.0;;;5.69;93.26
68376;BME280;55318;52.068;5.188;2022-09-29T03:54:18;100067.0;;;5.71;93.38
68376;BME280;55318;52.068;5.188;2022-09-29T03:55:54;100062.0;;;5.72;93.31
68376;BME280;55318;52.068;5.188;2022-09-29T03:57:30;100065.0;;;5.7;92.95
68376;BME280;55318;52.068;5.188;2022-09-29T04:00:47;100069.0;;;5.66;93.04
68376;BME280;55318;52.068;5.188;2022-09-29T04:02:23;100067.0;;;5.68;93.17
68376;BME280;55318;52.068;5.188;2022-09-29T04:03:59;100069.0;;;5.69;93.24
68376;BME280;55318;52.068;5.188;2022-09-29T04:08:51;100064.0;;;5.7;93.09
68376;BME280;55318;52.068;5.188;2022-09-29T04:10:27;100068.0;;;5.69;92.94
68376;BME280;55318;52.068;5.188;2022-09-29T04:12:03;100073.0;;;5.68;93.86
68376;BME280;55318;52.068;5.188;2022-09-29T04:15:16;100071.0;;;5.69;93.99
68376;BME280;55318;52.068;5.188;2022-09-29T04:16:52;100073.0;;;5.72;93.92
68376;BME280;55318;52.068;5.188;2022-09-29T04:18:29;100077.0;;;5.73;93.51
68376;BME280;55318;52.068;5.188;2022-09-29T04:21:45;100078.0;;;5.72;93.59
68376;BME280;55318;52.068;5.188;2022-09-29T04:23:21;100080.0;;;5.78;94.24
68376;BME280;55318;52.068;5.188;2022-09-29T04:24:58;100081.0;;;5.73;93.66
68376;BME280;55318;52.068;5.188;2022-09-29T04:26:35;100083.0;;;5.67;93.23
68376;BME280;55318;52.068;5.188;2022-09-29T04:29:48;100087.0;;;5.65;93.0
68376;BME280;55318;52.068;5.188;2022-09-29T04:31:24;100090.0;;;5.65;93.31
68376;BME280;55318;52.068;5.188;2022-09-29T04:33:01;100092.0;;;5.63;93.12
68376;BME280;55318;52.068;5.188;2022-09-29T04:36:13;100096.0;;;5.61;93.29
68376;BME280;55318;52.068;5.188;2022-09-29T04:37:53;100095.0;;;5.6;93.03
68376;BME280;55318;52.068;5.188;2022-09-29T04:39:30;100098.0;;;5.57;92.79
68376;BME280;55318;52.068;5.188;2022-09-29T04:41:06;100097.0;;;5.56;92.95
68376;BME280;55318;52.068;5.188;2022-09-29T04:44:21;100097.0;;;5.51;92.78
68376;BME280;55318;52.068;5.188;2022-09-29T04:46:03;100096.0;;;5.52;93.15
68376;BME280;55318;52.068;5.188;2022-09-29T04:47:40;100098.0;;;5.52;93.45
68376;BME280;55318;52.068;5.188;2022-09-29T04:50:54;100096.0;;;5.53;93.49
68376;BME280;55318;52.068;5.188;2022-09-29T04:52:29;100098.0;;;5.57;93.44
68376;BME280;55318;52.068;5.188;2022-09-29T04:54:05;100097.0;;;5.61;93.41
68376;BME280;55318;52.068;5.188;2022-09-29T04:55:42;100100.0;;;5.67;93.8
68376;BME280;55318;52.068;5.188;2022-09-29T04:58:54;100105.0;;;5.7;94.24
68376;BME280;55318;52.068;5.188;2022-09-29T05:00:32;100106.0;;;5.76;94.54
68376;BME280;55318;52.068;5.188;2022-09-29T05:02:08;100110.0;;;5.81;94.12
68376;BME280;55318;52.068;5.188;2022-09-29T05:05:20;100110.0;;;5.82;94.28
68376;BME280;55318;52.068;5.188;2022-09-29T05:06:57;100110.0;;;5.83;93.94
68376;BME280;55318;52.068;5.188;2022-09-29T05:08:33;100119.0;;;5.94;94.68
68376;BME280;55318;52.068;5.188;2022-09-29T05:11:45;100117.0;;;6.01;94.12
68376;BME280;55318;52.068;5.188;2022-09-29T05:13:21;100117.0;;;6.11;94.94
68376;BME280;55318;52.068;5.188;2022-09-29T05:14:58;100122.0;;;6.17;95.39
68376;BME280;55318;52.068;5.188;2022-09-29T05:18:10;100125.0;;;6.25;95.48
68376;BME280;55318;52.068;5.188;2022-09-29T05:19:47;100130.0;;;6.3;96.27
68376;BME280;55318;52.068;5.188;2022-09-29T05:21:23;100127.0;;;6.36;96.07
68376;BME280;55318;52.068;5.188;2022-09-29T05:23:00;100134.0;;;6.4;96.11
68376;BME280;55318;52.068;5.188;2022-09-29T05:26:12;100132.0;;;6.36;96.04
68376;BME280;55318;52.068;5.188;2022-09-29T05:27:49;100132.0;;;6.39;95.93
68376;BME280;55318;52.068;5.188;2022-09-29T05:29:26;100131.0;;;6.34;95.9
68376;BME280;55318;52.068;5.188;2022-09-29T05:32:41;100132.0;;;6.34;95.98
68376;BME280;55318;52.068;5.188;2022-09-29T05:34:19;100131.0;;;6.34;95.84
68376;BME280;55318;52.068;5.188;2022-09-29T05:35:55;100134.0;;;6.37;95.88
68376;BME280;55318;52.068;5.188;2022-09-29T05:37:32;100138.0;;;6.36;95.75
68376;BME280;55318;52.068;5.188;2022-09-29T05:40:45;100138.0;;;6.35;95.92
68376;BME280;55318;52.068;5.188;2022-09-29T05:42:24;100138.0;;;6.33;95.69
68376;BME280;55318;52.068;5.188;2022-09-29T05:44:01;100136.0;;;6.3;95.72
68376;BME280;55318;52.068;5.188;2022-09-29T05:47:14;100143.0;;;6.33;95.92
68376;BME280;55318;52.068;5.188;2022-09-29T05:48:51;100138.0;;;6.28;95.77
68376;BME280;55318;52.068;5.188;2022-09-29T05:50:27;100144.0;;;6.26;95.84
68376;BME280;55318;52.068;5.188;2022-09-29T05:53:40;100143.0;;;6.3;96.16
68376;BME280;55318;52.068;5.188;2022-09-29T05:55:17;100145.0;;;6.31;96.26
68376;BME280;55318;52.068;5.188;2022-09-29T05:56:55;100144.0;;;6.3;95.89
68376;BME280;55318;52.068;5.188;2022-09-29T05:58:32;100153.0;;;6.34;96.22
68376;BME280;55318;52.068;5.188;2022-09-29T06:01:45;100156.0;;;6.31;96.26
68376;BME280;55318;52.068;5.188;2022-09-29T06:03:21;100160.0;;;6.37;96.41
68376;BME280;55318;52.068;5.188;2022-09-29T06:04:58;100159.0;;;6.48;95.41
68376;BME280;55318;52.068;5.188;2022-09-29T06:08:11;100161.0;;;6.48;95.7
68376;BME280;55318;52.068;5.188;2022-09-29T06:09:47;100157.0;;;6.46;96.09
68376;BME280;55318;52.068;5.188;2022-09-29T06:11:25;100160.0;;;6.5;96.22
68376;BME280;55318;52.068;5.188;2022-09-29T06:14:39;100159.0;;;6.52;96.11
68376;BME280;55318;52.068;5.188;2022-09-29T06:16:16;100160.0;;;6.55;96.54
68376;BME280;55318;52.068;5.188;2022-09-29T06:17:54;100162.0;;;6.55;96.75
68376;BME280;55318;52.068;5.188;2022-09-29T06:19:31;100164.0;;;6.57;96.94
68376;BME280;55318;52.068;5.188;2022-09-29T06:22:47;100169.0;;;6.64;96.7
68376;BME280;55318;52.068;5.188;2022-09-29T06:24:23;100166.0;;;6.74;96.76
68376;BME280;55318;52.068;5.188;2022-09-29T06:26:02;100165.0;;;6.73;96.43
68376;BME280;55318;52.068;5.188;2022-09-29T06:29:19;100166.0;;;6.81;96.53
68376;BME280;55318;52.068;5.188;2022-09-29T06:30:57;100170.0;;;6.84;96.37
68376;BME280;55318;52.068;5.188;2022-09-29T06:34:11;100168.0;;;7.05;96.83
68376;BME280;55318;52.068;5.188;2022-09-29T06:38:40;100168.0;;;7.2;96.01
68376;BME280;55318;52.068;5.188;2022-09-29T06:41:56;100170.0;;;7.29;95.92
68376;BME280;55318;52.068;5.188;2022-09-29T06:43:32;100175.0;;;7.31;95.22
68376;BME280;55318;52.068;5.188;2022-09-29T06:45:10;100180.0;;;7.46;95.95
68376;BME280;55318;52.068;5.188;2022-09-29T06:46:45;100183.0;;;7.61;94.89
68376;BME280;55318;52.068;5.188;2022-09-29T06:50:00;100191.0;;;7.76;94.4
68376;BME280;55318;52.068;5.188;2022-09-29T06:51:37;100188.0;;;7.87;93.89
68376;BME280;55318;52.068;5.188;2022-09-29T06:53:13;100186.0;;;8.02;94.56
68376;BME280;55318;52.068;5.188;2022-09-29T06:56:25;100189.0;;;8.19;94.23
68376;BME280;55318;52.068;5.188;2022-09-29T06:58:01;100196.0;;;8.33;92.0
68376;BME280;55318;52.068;5.188;2022-09-29T06:59:37;100197.0;;;8.32;90.59
68376;BME280;55318;52.068;5.188;2022-09-29T07:01:13;100205.0;;;8.22;90.94
68376;BME280;55318;52.068;5.188;2022-09-29T07:04:26;100205.0;;;8.11;90.65
68376;BME280;55318;52.068;5.188;2022-09-29T07:06:04;100205.0;;;8.16;91.9
68376;BME280;55318;52.068;5.188;2022-09-29T07:07:41;100209.0;;;7.98;90.29
68376;BME280;55318;52.068;5.188;2022-09-29T07:10:55;100215.0;;;7.87;89.69
68376;BME280;55318;52.068;5.188;2022-09-29T07:12:30;100212.0;;;7.73;89.98
68376;BME280;55318;52.068;5.188;2022-09-29T07:14:06;100214.0;;;7.64;90.85
68376;BME280;55318;52.068;5.188;2022-09-29T07:17:19;100214.0;;;7.62;90.82
68376;BME280;55318;52.068;5.188;2022-09-29T07:18:55;100217.0;;;7.46;91.51
68376;BME280;55318;52.068;5.188;2022-09-29T07:20:31;100219.0;;;7.46;92.26
68376;BME280;55318;52.068;5.188;2022-09-29T07:23:45;100216.0;;;7.47;92.83
68376;BME280;55318;52.068;5.188;2022-09-29T07:25:23;100215.0;;;7.59;93.36
68376;BME280;55318;52.068;5.188;2022-09-29T07:26:59;100221.0;;;7.63;93.31
68376;BME280;55318;52.068;5.188;2022-09-29T07:28:35;100219.0;;;7.72;93.45
68376;BME280;55318;52.068;5.188;2022-09-29T07:31:51;100224.0;;;7.82;93.47
68376;BME280;55318;52.068;5.188;2022-09-29T07:33:28;100227.0;;;7.83;93.81
68376;BME280;55318;52.068;5.188;2022-09-29T07:35:07;100227.0;;;7.84;93.63
68376;BME280;55318;52.068;5.188;2022-09-29T07:38:19;100230.0;;;7.91;93.93
68376;BME280;55318;52.068;5.188;2022-09-29T07:39:55;100231.0;;;8.02;94.17
68376;BME280;55318;52.068;5.188;2022-09-29T07:41:31;100234.0;;;8.05;93.7
68376;BME280;55318;52.068;5.188;2022-09-29T07:43:07;100231.0;;;8.14;93.83
68376;BME280;55318;52.068;5.188;2022-09-29T07:46:19;100234.0;;;8.15;94.01
68376;BME280;55318;52.068;5.188;2022-09-29T07:47:56;100238.0;;;8.18;94.32
68376;BME280;55318;52.068;5.188;2022-09-29T07:49:32;100240.0;;;8.23;94.29
68376;BME280;55318;52.068;5.188;2022-09-29T07:52:49;100240.0;;;8.24;94.79
68376;BME280;55318;52.068;5.188;2022-09-29T07:54:25;100243.0;;;8.31;95.25
68376;BME280;55318;52.068;5.188;2022-09-29T07:56:03;100246.0;;;8.4;95.46
68376;BME280;55318;52.068;5.188;2022-09-29T07:59:16;100255.0;;;8.33;94.88
68376;BME280;55318;52.068;5.188;2022-09-29T08:00:53;100258.0;;;8.44;95.11
68376;BME280;55318;52.068;5.188;2022-09-29T08:02:29;100260.0;;;8.5;95.42
68376;BME280;55318;52.068;5.188;2022-09-29T08:04:05;100260.0;;;8.56;95.48
68376;BME280;55318;52.068;5.188;2022-09-29T08:07:17;100262.0;;;8.6;95.37
68376;BME280;55318;52.068;5.188;2022-09-29T08:08:54;100263.0;;;8.72;95.36
68376;BME280;55318;52.068;5.188;2022-09-29T08:10:31;100268.0;;;8.83;96.28
68376;BME280;55318;52.068;5.188;2022-09-29T08:13:50;100270.0;;;8.97;96.96
68376;BME280;55318;52.068;5.188;2022-09-29T08:15:27;100275.0;;;8.98;96.67
68376;BME280;55318;52.068;5.188;2022-09-29T08:17:03;100274.0;;;9.08;95.8
68376;BME280;55318;52.068;5.188;2022-09-29T08:18:40;100280.0;;;9.17;96.16
68376;BME280;55318;52.068;5.188;2022-09-29T08:21:53;100283.0;;;9.28;96.07
68376;BME280;55318;52.068;5.188;2022-09-29T08:23:34;100282.0;;;9.17;94.23
68376;BME280;55318;52.068;5.188;2022-09-29T08:25:11;100281.0;;;9.38;94.66
68376;BME280;55318;52.068;5.188;2022-09-29T08:28:23;100286.0;;;9.32;94.83
68376;BME280;55318;52.068;5.188;2022-09-29T08:29:59;100287.0;;;9.35;94.37
68376;BME280;55318;52.068;5.188;2022-09-29T08:31:37;100291.0;;;9.38;94.89
68376;BME280;55318;52.068;5.188;2022-09-29T08:34:50;100294.0;;;9.38;94.81
68376;BME280;55318;52.068;5.188;2022-09-29T08:36:26;100300.0;;;9.55;95.85
68376;BME280;55318;52.068;5.188;2022-09-29T08:38:04;100303.0;;;9.51;95.01
68376;BME280;55318;52.068;5.188;2022-09-29T08:39:40;100306.0;;;9.51;96.28
68376;BME280;55318;52.068;5.188;2022-09-29T08:43:16;100310.0;;;9.69;96.18
68376;BME280;55318;52.068;5.188;2022-09-29T08:45:01;100317.0;;;9.89;96.18
68376;BME280;55318;52.068;5.188;2022-09-29T08:46:45;100314.0;;;9.94;95.07
68376;BME280;55318;52.068;5.188;2022-09-29T08:48:25;100312.0;;;10.02;95.43
68376;BME280;55318;52.068;5.188;2022-09-29T08:50:05;100318.0;;;10.14;94.98
68376;BME280;55318;52.068;5.188;2022-09-29T08:53:30;100318.0;;;10.22;94.65
68376;BME280;55318;52.068;5.188;2022-09-29T08:55:21;100320.0;;;10.36;94.66
68376;BME280;55318;52.068;5.188;2022-09-29T08:57:01;100320.0;;;10.48;93.51
68376;BME280;55318;52.068;5.188;2022-09-29T08:58:39;100325.0;;;10.5;93.72
68376;BME280;55318;52.068;5.188;2022-09-29T09:02:23;100319.0;;;10.52;94.11
68376;BME280;55318;52.068;5.188;2022-09-29T09:04:32;100325.0;;;10.55;93.75
68376;BME280;55318;52.068;5.188;2022-09-29T09:07:15;100326.0;;;10.84;93.29
68376;BME280;55318;52.068;5.188;2022-09-29T09:09:05;100330.0;;;10.91;92.88
68376;BME280;55318;52.068;5.188;2022-09-29T09:12:53;100330.0;;;11.12;94.37
68376;BME280;55318;52.068;5.188;2022-09-29T09:14:47;100327.0;;;11.34;93.09
68376;BME280;55318;52.068;5.188;2022-09-29T09:16:36;100330.0;;;11.64;92.54
68376;BME280;55318;52.068;5.188;2022-09-29T09:18:43;100340.0;;;11.84;92.23
68376;BME280;55318;52.068;5.188;2022-09-29T09:22:19;100333.0;;;12.68;89.98
68376;BME280;55318;52.068;5.188;2022-09-29T09:24:01;100336.0;;;13.03;87.02
68376;BME280;55318;52.068;5.188;2022-09-29T09:25:46;100337.0;;;13.28;85.38
68376;BME280;55318;52.068;5.188;2022-09-29T09:29:11;100337.0;;;13.56;84.81
68376;BME280;55318;52.068;5.188;2022-09-29T09:30:55;100337.0;;;13.95;85.03
68376;BME280;55318;52.068;5.188;2022-09-29T09:32:38;100334.0;;;14.17;79.66
68376;BME280;55318;52.068;5.188;2022-09-29T09:34:19;100335.0;;;14.3;79.47
68376;BME280;55318;52.068;5.188;2022-09-29T09:37:44;100336.0;;;14.38;76.78
68376;BME280;55318;52.068;5.188;2022-09-29T09:39:26;100337.0;;;14.27;79.75
68376;BME280;55318;52.068;5.188;2022-09-29T09:41:06;100338.0;;;14.44;77.88
68376;BME280;55318;52.068;5.188;2022-09-29T09:42:46;100340.0;;;14.32;77.09
68376;BME280;55318;52.068;5.188;2022-09-29T09:44:32;100342.0;;;14.32;78.84
68376;BME280;55318;52.068;5.188;2022-09-29T09:47:58;100347.0;;;14.3;77.36
68376;BME280;55318;52.068;5.188;2022-09-29T09:49:38;100350.0;;;14.2;78.62
68376;BME280;55318;52.068;5.188;2022-09-29T09:51:29;100343.0;;;14.28;80.08
68376;BME280;55318;52.068;5.188;2022-09-29T09:53:25;100346.0;;;14.36;76.87
68376;BME280;55318;52.068;5.188;2022-09-29T09:55:12;100343.0;;;14.46;77.97
68376;BME280;55318;52.068;5.188;2022-09-29T09:59:12;100343.0;;;14.57;78.44
68376;BME280;55318;52.068;5.188;2022-09-29T10:01:07;100338.0;;;14.78;80.61
68376;BME280;55318;52.068;5.188;2022-09-29T10:02:45;100348.0;;;14.64;77.48
68376;BME280;55318;52.068;5.188;2022-09-29T10:04:23;100349.0;;;14.76;79.5
68376;BME280;55318;52.068;5.188;2022-09-29T10:05:59;100346.0;;;14.49;76.91
68376;BME280;55318;52.068;5.188;2022-09-29T10:07:36;100348.0;;;14.56;76.73
68376;BME280;55318;52.068;5.188;2022-09-29T10:10:50;100353.0;;;14.11;77.77
68376;BME280;55318;52.068;5.188;2022-09-29T10:12:28;100349.0;;;14.52;79.86
68376;BME280;55318;52.068;5.188;2022-09-29T10:14:11;100345.0;;;14.64;78.84
68376;BME280;55318;52.068;5.188;2022-09-29T10:15:51;100347.0;;;14.75;77.64
68376;BME280;55318;52.068;5.188;2022-09-29T10:19:20;100343.0;;;14.8;78.49
68376;BME280;55318;52.068;5.188;2022-09-29T10:20:57;100352.0;;;15.01;76.97
68376;BME280;55318;52.068;5.188;2022-09-29T10:22:34;100351.0;;;15.01;75.97
68376;BME280;55318;52.068;5.188;2022-09-29T10:24:27;100350.0;;;14.79;78.64
68376;BME280;55318;52.068;5.188;2022-09-29T10:27:49;100352.0;;;14.81;78.22
68376;BME280;55318;52.068;5.188;2022-09-29T10:29:33;100349.0;;;14.78;77.94
68376;BME280;55318;52.068;5.188;2022-09-29T10:31:29;100352.0;;;14.81;78.22
68376;BME280;55318;52.068;5.188;2022-09-29T10:33:13;100358.0;;;14.78;79.05
68376;BME280;55318;52.068;5.188;2022-09-29T10:35:05;100355.0;;;14.61;77.49
68376;BME280;55318;52.068;5.188;2022-09-29T10:36:49;100358.0;;;14.62;77.42
68376;BME280;55318;52.068;5.188;2022-09-29T10:40:14;100358.0;;;14.63;78.83
68376;BME280;55318;52.068;5.188;2022-09-29T10:41:53;100357.0;;;14.68;75.39
68376;BME280;55318;52.068;5.188;2022-09-29T10:43:34;100356.0;;;14.66;73.52
68376;BME280;55318;52.068;5.188;2022-09-29T10:45:15;100356.0;;;14.64;73.97
68376;BME280;55318;52.068;5.188;2022-09-29T10:48:31;100359.0;;;14.65;75.33
68376;BME280;55318;52.068;5.188;2022-09-29T10:50:12;100362.0;;;14.74;78.06
68376;BME280;55318;52.068;5.188;2022-09-29T10:51:54;100356.0;;;14.84;74.22
68376;BME280;55318;52.068;5.188;2022-09-29T10:53:35;100361.0;;;14.91;73.47
68376;BME280;55318;52.068;5.188;2022-09-29T10:56:56;100359.0;;;15.1;73.39
68376;BME280;55318;52.068;5.188;2022-09-29T10:58:35;100361.0;;;15.1;73.92
68376;BME280;55318;52.068;5.188;2022-09-29T11:00:32;100361.0;;;15.14;71.83
68376;BME280;55318;52.068;5.188;2022-09-29T11:02:16;100364.0;;;15.09;68.31
68376;BME280;55318;52.068;5.188;2022-09-29T11:04:03;100361.0;;;15.21;70.11
68376;BME280;55318;52.068;5.188;2022-09-29T11:07:28;100362.0;;;15.12;69.41
68376;BME280;55318;52.068;5.188;2022-09-29T11:09:25;100364.0;;;15.33;70.08
68376;BME280;55318;52.068;5.188;2022-09-29T11:11:05;100363.0;;;15.25;68.25
68376;BME280;55318;52.068;5.188;2022-09-29T11:12:41;100358.0;;;15.28;71.48
68376;BME280;55318;52.068;5.188;2022-09-29T11:16:04;100362.0;;;15.33;70.41
68376;BME280;55318;52.068;5.188;2022-09-29T11:17:48;100367.0;;;15.38;68.02
68376;BME280;55318;52.068;5.188;2022-09-29T11:19:27;100361.0;;;15.5;66.27
68376;BME280;55318;52.068;5.188;2022-09-29T11:21:20;100362.0;;;15.44;62.87
68376;BME280;55318;52.068;5.188;2022-09-29T11:23:25;100366.0;;;15.48;67.35
68376;BME280;55318;52.068;5.188;2022-09-29T11:25:16;100367.0;;;15.81;69.5
68376;BME280;55318;52.068;5.188;2022-09-29T11:27:06;100367.0;;;15.81;69.58